Bluff Springs, Texas
Current Conditions -  °F | °C
As of 12:53 PM on Monday 20 Oct 2014 (Local Time) from KAUS Reporting Station
Scattered Clouds Scattered Clouds  
Wind Chill: 78°   Ceiling: Unl
Heat Index: 80°   Visibility: 10mi
Dew Point: 64°   Wind: 7mph
Humidity: 62%   Direction: 40°NE
Pressure: 30.07"   Gusts: NA
Location:  30.1791°N, 97.7294°W
Report Text: KAUS 201753Z 04006KT 10SM SCT034 SCT250 26/18 A3007 RMK AO2 SLP174 T02560178 10261 20139 58008
Loading
Personal Weather Stations






























Interactive Weather Map
Tropical Storm Tracking
New forecast layout! Learn more

10-Day Weather Forecast

Advertisements
Track Severe Weather on mobile